Gold Coast Seaway, Australia
Current Conditions -  °F | °C
As of 9:30 AM on Sunday 23 Nov 2014 (Local Time) from YBCG Reporting Station
Clear Clear  
Wind Chill: 79°   Ceiling: Unl
Heat Index: 81°   Visibility: 6mi
Dew Point: 68°   Wind: 22mph
Humidity: 69%   Direction: 10°N
Pressure: 30.03"   Gusts: NA
Location:  27.93°S, 153.43°E
Report Text: YBCG 222330Z AUTO 01019KT 9999 // NCD 26/20 Q1017
Loading
Personal Weather Stations






























Interactive Weather Map New forecast layout! Learn more

10-Day Weather Forecast

Advertisements
Track Severe Weather on mobile